sensor_id;sensor_type;location;lat;lon;timestamp;P1;durP1;ratioP1;P2;durP2;ratioP2
26594;SDS011;14238;49.496;8.154;2023-03-19T00:02:01;1.73;;;1.63;;
26594;SDS011;14238;49.496;8.154;2023-03-19T00:04:26;3.73;;;1.63;;
26594;SDS011;14238;49.496;8.154;2023-03-19T00:06:52;2.03;;;1.83;;
26594;SDS011;14238;49.496;8.154;2023-03-19T00:09:19;3.83;;;2.07;;
26594;SDS011;14238;49.496;8.154;2023-03-19T00:11:45;1.83;;;1.70;;
26594;SDS011;14238;49.496;8.154;2023-03-19T00:14:12;2.60;;;2.20;;
26594;SDS011;14238;49.496;8.154;2023-03-19T00:16:38;1.90;;;1.60;;
26594;SDS011;14238;49.496;8.154;2023-03-19T00:19:03;3.60;;;1.90;;
26594;SDS011;14238;49.496;8.154;2023-03-19T00:21:29;2.20;;;1.50;;
26594;SDS011;14238;49.496;8.154;2023-03-19T00:23:55;2.30;;;1.70;;
26594;SDS011;14238;49.496;8.154;2023-03-19T00:26:33;1.73;;;1.63;;
26594;SDS011;14238;49.496;8.154;2023-03-19T00:28:59;3.80;;;1.47;;
26594;SDS011;14238;49.496;8.154;2023-03-19T00:31:25;2.70;;;1.80;;
26594;SDS011;14238;49.496;8.154;2023-03-19T00:33:52;2.07;;;1.97;;
26594;SDS011;14238;49.496;8.154;2023-03-19T00:36:18;3.50;;;1.90;;
26594;SDS011;14238;49.496;8.154;2023-03-19T00:38:44;1.60;;;1.50;;
26594;SDS011;14238;49.496;8.154;2023-03-19T00:41:11;2.30;;;1.67;;
26594;SDS011;14238;49.496;8.154;2023-03-19T00:43:37;2.07;;;1.80;;
26594;SDS011;14238;49.496;8.154;2023-03-19T00:46:03;2.70;;;1.97;;
26594;SDS011;14238;49.496;8.154;2023-03-19T00:48:29;2.50;;;1.87;;
26594;SDS011;14238;49.496;8.154;2023-03-19T00:50:55;3.67;;;2.50;;
26594;SDS011;14238;49.496;8.154;2023-03-19T00:53:35;2.77;;;1.93;;
26594;SDS011;14238;49.496;8.154;2023-03-19T00:56:06;1.67;;;1.43;;
26594;SDS011;14238;49.496;8.154;2023-03-19T00:58:32;4.40;;;1.87;;
26594;SDS011;14238;49.496;8.154;2023-03-19T01:00:58;2.10;;;1.90;;
26594;SDS011;14238;49.496;8.154;2023-03-19T01:03:24;2.00;;;1.80;;
26594;SDS011;14238;49.496;8.154;2023-03-19T01:05:50;3.50;;;1.80;;
26594;SDS011;14238;49.496;8.154;2023-03-19T01:08:16;1.70;;;1.60;;
26594;SDS011;14238;49.496;8.154;2023-03-19T01:10:43;2.27;;;1.87;;
26594;SDS011;14238;49.496;8.154;2023-03-19T01:13:10;1.70;;;1.60;;
26594;SDS011;14238;49.496;8.154;2023-03-19T01:15:40;3.57;;;1.63;;
26594;SDS011;14238;49.496;8.154;2023-03-19T01:18:06;2.30;;;1.50;;
26594;SDS011;14238;49.496;8.154;2023-03-19T01:20:33;1.87;;;1.70;;
26594;SDS011;14238;49.496;8.154;2023-03-19T01:22:59;1.80;;;1.70;;
26594;SDS011;14238;49.496;8.154;2023-03-19T01:25:25;1.80;;;1.40;;
26594;SDS011;14238;49.496;8.154;2023-03-19T01:27:51;1.57;;;1.47;;
26594;SDS011;14238;49.496;8.154;2023-03-19T01:30:17;3.00;;;2.03;;
26594;SDS011;14238;49.496;8.154;2023-03-19T01:32:44;2.00;;;1.90;;
26594;SDS011;14238;49.496;8.154;2023-03-19T01:35:10;2.10;;;1.70;;
26594;SDS011;14238;49.496;8.154;2023-03-19T01:37:36;2.57;;;1.70;;
26594;SDS011;14238;49.496;8.154;2023-03-19T01:40:02;3.13;;;1.50;;
26594;SDS011;14238;49.496;8.154;2023-03-19T01:42:29;1.60;;;1.50;;
26594;SDS011;14238;49.496;8.154;2023-03-19T01:44:55;2.43;;;1.60;;
26594;SDS011;14238;49.496;8.154;2023-03-19T01:47:29;2.43;;;2.17;;
26594;SDS011;14238;49.496;8.154;2023-03-19T01:50:03;1.67;;;1.57;;
26594;SDS011;14238;49.496;8.154;2023-03-19T01:52:30;2.00;;;1.80;;
26594;SDS011;14238;49.496;8.154;2023-03-19T01:54:59;1.80;;;1.70;;
26594;SDS011;14238;49.496;8.154;2023-03-19T01:57:29;4.40;;;1.73;;
26594;SDS011;14238;49.496;8.154;2023-03-19T01:59:56;2.40;;;1.97;;
26594;SDS011;14238;49.496;8.154;2023-03-19T02:02:26;2.00;;;1.80;;
26594;SDS011;14238;49.496;8.154;2023-03-19T02:07:31;1.70;;;1.60;;
26594;SDS011;14238;49.496;8.154;2023-03-19T02:09:58;1.80;;;1.70;;
26594;SDS011;14238;49.496;8.154;2023-03-19T02:12:25;1.87;;;1.77;;
26594;SDS011;14238;49.496;8.154;2023-03-19T02:14:51;1.97;;;1.43;;
26594;SDS011;14238;49.496;8.154;2023-03-19T02:17:18;1.93;;;1.70;;
26594;SDS011;14238;49.496;8.154;2023-03-19T02:19:48;1.60;;;1.50;;
26594;SDS011;14238;49.496;8.154;2023-03-19T02:22:21;1.70;;;1.60;;
26594;SDS011;14238;49.496;8.154;2023-03-19T02:24:50;2.07;;;1.90;;
26594;SDS011;14238;49.496;8.154;2023-03-19T02:27:22;2.07;;;1.87;;
26594;SDS011;14238;49.496;8.154;2023-03-19T02:29:48;2.20;;;2.00;;
26594;SDS011;14238;49.496;8.154;2023-03-19T02:32:14;2.20;;;2.00;;
26594;SDS011;14238;49.496;8.154;2023-03-19T02:34:41;2.07;;;1.80;;
26594;SDS011;14238;49.496;8.154;2023-03-19T02:37:18;1.87;;;1.77;;
26594;SDS011;14238;49.496;8.154;2023-03-19T02:42:21;2.60;;;2.40;;
26594;SDS011;14238;49.496;8.154;2023-03-19T02:44:48;2.10;;;2.00;;
26594;SDS011;14238;49.496;8.154;2023-03-19T02:47:14;2.50;;;2.30;;
26594;SDS011;14238;49.496;8.154;2023-03-19T02:49:41;2.73;;;2.20;;
26594;SDS011;14238;49.496;8.154;2023-03-19T02:52:06;3.83;;;2.23;;
26594;SDS011;14238;49.496;8.154;2023-03-19T02:54:32;2.30;;;2.10;;
26594;SDS011;14238;49.496;8.154;2023-03-19T02:56:58;2.87;;;2.60;;
26594;SDS011;14238;49.496;8.154;2023-03-19T02:59:23;2.87;;;2.67;;
26594;SDS011;14238;49.496;8.154;2023-03-19T03:01:49;2.33;;;2.13;;
26594;SDS011;14238;49.496;8.154;2023-03-19T03:04:14;3.10;;;2.57;;
26594;SDS011;14238;49.496;8.154;2023-03-19T03:06:41;2.70;;;2.37;;
26594;SDS011;14238;49.496;8.154;2023-03-19T03:09:07;2.50;;;2.30;;
26594;SDS011;14238;49.496;8.154;2023-03-19T03:11:33;2.93;;;2.57;;
26594;SDS011;14238;49.496;8.154;2023-03-19T03:13:59;2.43;;;2.20;;
26594;SDS011;14238;49.496;8.154;2023-03-19T03:16:24;2.10;;;1.90;;
26594;SDS011;14238;49.496;8.154;2023-03-19T03:18:50;2.63;;;2.43;;
26594;SDS011;14238;49.496;8.154;2023-03-19T03:21:15;2.20;;;2.10;;
26594;SDS011;14238;49.496;8.154;2023-03-19T03:23:44;2.70;;;2.50;;
26594;SDS011;14238;49.496;8.154;2023-03-19T03:26:09;2.40;;;2.20;;
26594;SDS011;14238;49.496;8.154;2023-03-19T03:28:35;4.17;;;2.37;;
26594;SDS011;14238;49.496;8.154;2023-03-19T03:31:01;4.10;;;2.40;;
26594;SDS011;14238;49.496;8.154;2023-03-19T03:33:27;4.67;;;2.10;;
26594;SDS011;14238;49.496;8.154;2023-03-19T03:35:53;2.63;;;2.20;;
26594;SDS011;14238;49.496;8.154;2023-03-19T03:38:19;3.43;;;2.57;;
26594;SDS011;14238;49.496;8.154;2023-03-19T03:40:48;3.90;;;2.50;;
26594;SDS011;14238;49.496;8.154;2023-03-19T03:43:18;2.87;;;2.60;;
26594;SDS011;14238;49.496;8.154;2023-03-19T03:45:46;2.40;;;2.20;;
26594;SDS011;14238;49.496;8.154;2023-03-19T03:48:12;2.57;;;2.40;;
26594;SDS011;14238;49.496;8.154;2023-03-19T03:50:38;3.33;;;2.30;;
26594;SDS011;14238;49.496;8.154;2023-03-19T03:53:05;4.70;;;3.03;;
26594;SDS011;14238;49.496;8.154;2023-03-19T03:55:30;2.80;;;2.60;;
26594;SDS011;14238;49.496;8.154;2023-03-19T03:57:57;3.30;;;3.03;;
26594;SDS011;14238;49.496;8.154;2023-03-19T04:00:22;2.60;;;2.40;;
26594;SDS011;14238;49.496;8.154;2023-03-19T04:02:49;3.77;;;2.97;;
26594;SDS011;14238;49.496;8.154;2023-03-19T04:05:15;4.77;;;2.40;;
26594;SDS011;14238;49.496;8.154;2023-03-19T04:07:41;2.63;;;2.40;;
26594;SDS011;14238;49.496;8.154;2023-03-19T04:10:07;4.00;;;3.70;;
26594;SDS011;14238;49.496;8.154;2023-03-19T04:12:34;3.67;;;3.33;;
26594;SDS011;14238;49.496;8.154;2023-03-19T04:15:01;5.40;;;5.00;;
26594;SDS011;14238;49.496;8.154;2023-03-19T04:17:28;6.43;;;5.37;;
26594;SDS011;14238;49.496;8.154;2023-03-19T04:19:54;6.40;;;5.70;;
26594;SDS011;14238;49.496;8.154;2023-03-19T04:22:19;7.07;;;6.47;;
26594;SDS011;14238;49.496;8.154;2023-03-19T04:24:45;6.67;;;6.13;;
26594;SDS011;14238;49.496;8.154;2023-03-19T04:27:10;6.80;;;6.20;;
26594;SDS011;14238;49.496;8.154;2023-03-19T04:29:36;6.60;;;5.97;;
26594;SDS011;14238;49.496;8.154;2023-03-19T04:32:01;6.33;;;5.87;;
26594;SDS011;14238;49.496;8.154;2023-03-19T04:34:27;7.33;;;6.67;;
26594;SDS011;14238;49.496;8.154;2023-03-19T04:36:52;8.67;;;6.70;;
26594;SDS011;14238;49.496;8.154;2023-03-19T04:39:18;6.80;;;6.20;;
26594;SDS011;14238;49.496;8.154;2023-03-19T04:41:44;5.83;;;5.43;;
26594;SDS011;14238;49.496;8.154;2023-03-19T04:44:09;6.30;;;5.80;;
26594;SDS011;14238;49.496;8.154;2023-03-19T04:46:35;6.10;;;5.50;;
26594;SDS011;14238;49.496;8.154;2023-03-19T04:49:01;5.50;;;5.10;;
26594;SDS011;14238;49.496;8.154;2023-03-19T04:51:26;6.23;;;5.10;;
26594;SDS011;14238;49.496;8.154;2023-03-19T04:53:52;6.30;;;5.57;;
26594;SDS011;14238;49.496;8.154;2023-03-19T04:56:19;6.00;;;5.53;;
26594;SDS011;14238;49.496;8.154;2023-03-19T04:58:45;5.80;;;5.17;;
26594;SDS011;14238;49.496;8.154;2023-03-19T05:01:11;5.33;;;4.83;;
26594;SDS011;14238;49.496;8.154;2023-03-19T05:03:36;5.57;;;5.17;;
26594;SDS011;14238;49.496;8.154;2023-03-19T05:06:02;5.27;;;4.77;;
26594;SDS011;14238;49.496;8.154;2023-03-19T05:08:28;5.00;;;4.70;;
26594;SDS011;14238;49.496;8.154;2023-03-19T05:10:53;6.37;;;5.07;;
26594;SDS011;14238;49.496;8.154;2023-03-19T05:13:19;5.10;;;4.60;;
26594;SDS011;14238;49.496;8.154;2023-03-19T05:15:45;5.30;;;4.80;;
26594;SDS011;14238;49.496;8.154;2023-03-19T05:18:11;4.97;;;4.10;;
26594;SDS011;14238;49.496;8.154;2023-03-19T05:20:37;4.93;;;3.90;;
26594;SDS011;14238;49.496;8.154;2023-03-19T05:23:04;4.17;;;3.87;;
26594;SDS011;14238;49.496;8.154;2023-03-19T05:25:30;3.80;;;3.50;;
26594;SDS011;14238;49.496;8.154;2023-03-19T05:27:59;6.20;;;3.83;;
26594;SDS011;14238;49.496;8.154;2023-03-19T05:30:24;4.80;;;3.80;;
26594;SDS011;14238;49.496;8.154;2023-03-19T05:32:51;4.60;;;3.00;;
26594;SDS011;14238;49.496;8.154;2023-03-19T05:35:17;3.23;;;3.03;;
26594;SDS011;14238;49.496;8.154;2023-03-19T05:37:42;3.90;;;2.90;;
26594;SDS011;14238;49.496;8.154;2023-03-19T05:40:08;3.60;;;3.30;;
26594;SDS011;14238;49.496;8.154;2023-03-19T05:42:34;2.90;;;2.70;;
26594;SDS011;14238;49.496;8.154;2023-03-19T05:45:00;3.90;;;3.60;;
26594;SDS011;14238;49.496;8.154;2023-03-19T05:47:26;3.87;;;3.00;;
26594;SDS011;14238;49.496;8.154;2023-03-19T05:49:51;3.20;;;2.90;;
26594;SDS011;14238;49.496;8.154;2023-03-19T05:52:17;5.03;;;3.03;;
26594;SDS011;14238;49.496;8.154;2023-03-19T05:54:42;2.90;;;2.70;;
26594;SDS011;14238;49.496;8.154;2023-03-19T05:57:08;2.97;;;2.77;;
26594;SDS011;14238;49.496;8.154;2023-03-19T05:59:34;3.30;;;3.00;;
26594;SDS011;14238;49.496;8.154;2023-03-19T06:01:59;4.40;;;2.40;;
26594;SDS011;14238;49.496;8.154;2023-03-19T06:04:25;2.60;;;2.40;;
26594;SDS011;14238;49.496;8.154;2023-03-19T06:06:51;4.70;;;2.80;;
26594;SDS011;14238;49.496;8.154;2023-03-19T06:09:16;2.60;;;2.33;;
26594;SDS011;14238;49.496;8.154;2023-03-19T06:11:42;3.63;;;2.50;;
26594;SDS011;14238;49.496;8.154;2023-03-19T06:14:08;4.83;;;2.40;;
26594;SDS011;14238;49.496;8.154;2023-03-19T06:16:33;2.60;;;2.40;;
26594;SDS011;14238;49.496;8.154;2023-03-19T06:18:59;2.80;;;2.50;;
26594;SDS011;14238;49.496;8.154;2023-03-19T06:21:24;2.83;;;2.63;;
26594;SDS011;14238;49.496;8.154;2023-03-19T06:23:53;5.23;;;3.87;;
26594;SDS011;14238;49.496;8.154;2023-03-19T06:26:20;3.93;;;3.57;;
26594;SDS011;14238;49.496;8.154;2023-03-19T06:28:46;4.43;;;3.80;;
26594;SDS011;14238;49.496;8.154;2023-03-19T06:31:12;3.63;;;3.30;;
26594;SDS011;14238;49.496;8.154;2023-03-19T06:33:37;2.67;;;2.47;;
26594;SDS011;14238;49.496;8.154;2023-03-19T06:36:03;3.50;;;3.20;;
26594;SDS011;14238;49.496;8.154;2023-03-19T06:38:29;3.80;;;2.93;;
26594;SDS011;14238;49.496;8.154;2023-03-19T06:40:54;3.77;;;3.30;;
26594;SDS011;14238;49.496;8.154;2023-03-19T06:43:20;3.73;;;3.47;;
26594;SDS011;14238;49.496;8.154;2023-03-19T06:45:45;5.10;;;4.30;;
26594;SDS011;14238;49.496;8.154;2023-03-19T06:48:11;7.40;;;5.03;;
26594;SDS011;14238;49.496;8.154;2023-03-19T06:50:37;5.60;;;4.97;;
26594;SDS011;14238;49.496;8.154;2023-03-19T06:53:02;6.07;;;5.37;;
26594;SDS011;14238;49.496;8.154;2023-03-19T06:55:28;6.43;;;5.83;;
26594;SDS011;14238;49.496;8.154;2023-03-19T06:57:54;7.13;;;4.70;;
26594;SDS011;14238;49.496;8.154;2023-03-19T07:00:20;5.73;;;4.90;;
26594;SDS011;14238;49.496;8.154;2023-03-19T07:02:46;7.80;;;5.87;;
26594;SDS011;14238;49.496;8.154;2023-03-19T07:05:12;4.20;;;3.90;;
26594;SDS011;14238;49.496;8.154;2023-03-19T07:07:37;4.23;;;3.20;;
26594;SDS011;14238;49.496;8.154;2023-03-19T07:10:03;5.60;;;5.03;;
26594;SDS011;14238;49.496;8.154;2023-03-19T07:12:29;6.33;;;5.43;;
26594;SDS011;14238;49.496;8.154;2023-03-19T07:14:55;4.93;;;4.10;;
26594;SDS011;14238;49.496;8.154;2023-03-19T07:17:21;3.13;;;2.93;;
26594;SDS011;14238;49.496;8.154;2023-03-19T07:19:47;3.17;;;2.47;;
26594;SDS011;14238;49.496;8.154;2023-03-19T07:22:13;2.40;;;2.30;;
26594;SDS011;14238;49.496;8.154;2023-03-19T07:24:38;2.67;;;2.47;;
26594;SDS011;14238;49.496;8.154;2023-03-19T07:27:04;3.60;;;3.30;;
26594;SDS011;14238;49.496;8.154;2023-03-19T07:29:29;3.03;;;2.70;;
26594;SDS011;14238;49.496;8.154;2023-03-19T07:31:55;3.40;;;3.10;;
26594;SDS011;14238;49.496;8.154;2023-03-19T07:34:21;2.60;;;2.07;;
26594;SDS011;14238;49.496;8.154;2023-03-19T07:36:47;3.10;;;2.70;;
26594;SDS011;14238;49.496;8.154;2023-03-19T07:39:12;3.47;;;2.70;;
26594;SDS011;14238;49.496;8.154;2023-03-19T07:41:38;2.90;;;2.70;;
26594;SDS011;14238;49.496;8.154;2023-03-19T07:44:04;3.10;;;2.87;;
26594;SDS011;14238;49.496;8.154;2023-03-19T07:46:30;2.87;;;2.67;;
26594;SDS011;14238;49.496;8.154;2023-03-19T07:48:56;2.93;;;2.73;;
26594;SDS011;14238;49.496;8.154;2023-03-19T07:51:22;3.30;;;3.00;;
26594;SDS011;14238;49.496;8.154;2023-03-19T07:53:47;3.00;;;2.80;;
26594;SDS011;14238;49.496;8.154;2023-03-19T07:56:13;3.10;;;2.90;;
26594;SDS011;14238;49.496;8.154;2023-03-19T07:58:38;3.23;;;2.67;;
26594;SDS011;14238;49.496;8.154;2023-03-19T08:01:04;2.80;;;2.60;;
26594;SDS011;14238;49.496;8.154;2023-03-19T08:03:31;4.20;;;3.90;;
26594;SDS011;14238;49.496;8.154;2023-03-19T08:05:57;4.83;;;4.20;;
26594;SDS011;14238;49.496;8.154;2023-03-19T08:08:23;5.63;;;5.03;;
26594;SDS011;14238;49.496;8.154;2023-03-19T08:10:48;5.53;;;4.67;;
26594;SDS011;14238;49.496;8.154;2023-03-19T08:13:14;4.20;;;3.80;;
26594;SDS011;14238;49.496;8.154;2023-03-19T08:15:40;3.30;;;2.90;;
26594;SDS011;14238;49.496;8.154;2023-03-19T08:18:06;5.93;;;3.50;;
26594;SDS011;14238;49.496;8.154;2023-03-19T08:20:32;8.27;;;4.90;;
26594;SDS011;14238;49.496;8.154;2023-03-19T08:22:57;10.60;;;7.10;;
26594;SDS011;14238;49.496;8.154;2023-03-19T08:25:23;5.77;;;4.50;;
26594;SDS011;14238;49.496;8.154;2023-03-19T08:27:49;9.80;;;7.13;;
26594;SDS011;14238;49.496;8.154;2023-03-19T08:30:15;4.17;;;3.77;;
26594;SDS011;14238;49.496;8.154;2023-03-19T08:32:42;29.80;;;19.20;;
26594;SDS011;14238;49.496;8.154;2023-03-19T08:35:11;11.00;;;8.47;;
26594;SDS011;14238;49.496;8.154;2023-03-19T08:37:37;13.20;;;9.43;;
26594;SDS011;14238;49.496;8.154;2023-03-19T08:40:02;4.67;;;3.03;;
26594;SDS011;14238;49.496;8.154;2023-03-19T08:42:28;4.00;;;3.63;;
26594;SDS011;14238;49.496;8.154;2023-03-19T08:44:54;14.73;;;13.17;;
26594;SDS011;14238;49.496;8.154;2023-03-19T08:47:20;5.07;;;4.67;;
26594;SDS011;14238;49.496;8.154;2023-03-19T08:49:48;4.97;;;4.57;;
26594;SDS011;14238;49.496;8.154;2023-03-19T08:52:14;4.77;;;4.47;;
26594;SDS011;14238;49.496;8.154;2023-03-19T08:54:40;5.23;;;4.83;;
26594;SDS011;14238;49.496;8.154;2023-03-19T08:57:06;5.70;;;5.20;;
26594;SDS011;14238;49.496;8.154;2023-03-19T08:59:31;5.00;;;4.50;;
26594;SDS011;14238;49.496;8.154;2023-03-19T09:01:57;5.43;;;4.93;;
26594;SDS011;14238;49.496;8.154;2023-03-19T09:04:22;5.30;;;4.83;;
26594;SDS011;14238;49.496;8.154;2023-03-19T09:06:48;6.17;;;4.63;;
26594;SDS011;14238;49.496;8.154;2023-03-19T09:09:17;5.70;;;5.20;;
26594;SDS011;14238;49.496;8.154;2023-03-19T09:11:44;4.90;;;4.60;;
26594;SDS011;14238;49.496;8.154;2023-03-19T09:14:11;5.73;;;5.33;;
26594;SDS011;14238;49.496;8.154;2023-03-19T09:16:37;5.83;;;5.33;;
26594;SDS011;14238;49.496;8.154;2023-03-19T09:19:03;5.80;;;5.07;;
26594;SDS011;14238;49.496;8.154;2023-03-19T09:21:28;5.70;;;5.30;;
26594;SDS011;14238;49.496;8.154;2023-03-19T09:23:54;6.57;;;5.80;;
26594;SDS011;14238;49.496;8.154;2023-03-19T09:26:20;5.87;;;5.40;;
26594;SDS011;14238;49.496;8.154;2023-03-19T09:28:46;7.83;;;6.57;;
26594;SDS011;14238;49.496;8.154;2023-03-19T09:31:11;6.37;;;5.63;;
26594;SDS011;14238;49.496;8.154;2023-03-19T09:33:37;7.53;;;6.63;;
26594;SDS011;14238;49.496;8.154;2023-03-19T09:36:02;8.67;;;7.90;;
26594;SDS011;14238;49.496;8.154;2023-03-19T09:38:28;5.30;;;5.00;;
26594;SDS011;14238;49.496;8.154;2023-03-19T09:41:04;5.90;;;5.30;;
26594;SDS011;14238;49.496;8.154;2023-03-19T09:44:03;5.10;;;4.70;;
26594;SDS011;14238;49.496;8.154;2023-03-19T09:46:40;4.70;;;4.20;;
26594;SDS011;14238;49.496;8.154;2023-03-19T09:49:13;5.00;;;4.60;;
26594;SDS011;14238;49.496;8.154;2023-03-19T09:51:54;3.90;;;3.60;;
26594;SDS011;14238;49.496;8.154;2023-03-19T09:54:32;3.27;;;3.07;;
26594;SDS011;14238;49.496;8.154;2023-03-19T09:57:08;5.07;;;4.67;;
26594;SDS011;14238;49.496;8.154;2023-03-19T09:59:34;4.60;;;4.20;;
26594;SDS011;14238;49.496;8.154;2023-03-19T10:04:56;3.23;;;2.93;;
26594;SDS011;14238;49.496;8.154;2023-03-19T10:13:36;3.90;;;3.60;;
26594;SDS011;14238;49.496;8.154;2023-03-19T10:16:13;4.53;;;4.13;;
26594;SDS011;14238;49.496;8.154;2023-03-19T10:18:46;4.10;;;3.70;;
26594;SDS011;14238;49.496;8.154;2023-03-19T10:21:18;4.20;;;3.87;;
26594;SDS011;14238;49.496;8.154;2023-03-19T10:24:06;3.90;;;3.50;;
26594;SDS011;14238;49.496;8.154;2023-03-19T10:26:38;3.90;;;3.60;;
26594;SDS011;14238;49.496;8.154;2023-03-19T10:29:06;4.23;;;3.90;;
26594;SDS011;14238;49.496;8.154;2023-03-19T10:36:59;3.60;;;3.37;;
26594;SDS011;14238;49.496;8.154;2023-03-19T10:39:27;3.33;;;3.03;;
26594;SDS011;14238;49.496;8.154;2023-03-19T10:44:49;3.47;;;3.17;;
26594;SDS011;14238;49.496;8.154;2023-03-19T10:47:21;3.77;;;3.47;;
26594;SDS011;14238;49.496;8.154;2023-03-19T10:49:49;6.20;;;3.90;;
26594;SDS011;14238;49.496;8.154;2023-03-19T10:52:23;2.80;;;2.70;;
26594;SDS011;14238;49.496;8.154;2023-03-19T10:55:00;3.30;;;3.00;;
26594;SDS011;14238;49.496;8.154;2023-03-19T10:57:36;3.50;;;3.20;;
26594;SDS011;14238;49.496;8.154;2023-03-19T11:00:17;2.83;;;2.63;;
26594;SDS011;14238;49.496;8.154;2023-03-19T11:02:47;3.30;;;3.10;;
26594;SDS011;14238;49.496;8.154;2023-03-19T11:05:22;3.53;;;3.23;;
26594;SDS011;14238;49.496;8.154;2023-03-19T11:07:56;5.00;;;4.60;;
26594;SDS011;14238;49.496;8.154;2023-03-19T11:10:28;5.37;;;3.27;;
26594;SDS011;14238;49.496;8.154;2023-03-19T11:13:20;6.23;;;5.10;;
26594;SDS011;14238;49.496;8.154;2023-03-19T11:15:47;4.40;;;4.00;;
26594;SDS011;14238;49.496;8.154;2023-03-19T11:23:25;6.13;;;3.30;;
26594;SDS011;14238;49.496;8.154;2023-03-19T11:25:52;4.33;;;3.90;;
26594;SDS011;14238;49.496;8.154;2023-03-19T11:28:22;3.50;;;3.20;;
26594;SDS011;14238;49.496;8.154;2023-03-19T11:34:14;5.90;;;3.30;;
26594;SDS011;14238;49.496;8.154;2023-03-19T11:36:55;4.93;;;4.53;;
26594;SDS011;14238;49.496;8.154;2023-03-19T11:50:48;5.73;;;3.23;;
26594;SDS011;14238;49.496;8.154;2023-03-19T11:53:37;3.20;;;2.90;;
26594;SDS011;14238;49.496;8.154;2023-03-19T12:04:48;2.77;;;2.57;;
26594;SDS011;14238;49.496;8.154;2023-03-19T12:07:31;2.80;;;2.60;;
26594;SDS011;14238;49.496;8.154;2023-03-19T12:10:24;6.20;;;2.90;;
26594;SDS011;14238;49.496;8.154;2023-03-19T12:15:36;3.00;;;2.80;;
26594;SDS011;14238;49.496;8.154;2023-03-19T12:21:35;4.30;;;2.70;;
26594;SDS011;14238;49.496;8.154;2023-03-19T12:24:18;3.60;;;3.33;;
26594;SDS011;14238;49.496;8.154;2023-03-19T12:27:14;3.20;;;3.00;;
26594;SDS011;14238;49.496;8.154;2023-03-19T12:29:51;3.80;;;3.37;;
26594;SDS011;14238;49.496;8.154;2023-03-19T12:35:25;2.97;;;2.77;;
26594;SDS011;14238;49.496;8.154;2023-03-19T12:43:40;2.97;;;2.77;;
26594;SDS011;14238;49.496;8.154;2023-03-19T12:46:25;2.90;;;2.70;;
26594;SDS011;14238;49.496;8.154;2023-03-19T12:49:02;5.20;;;3.00;;
26594;SDS011;14238;49.496;8.154;2023-03-19T12:51:34;2.60;;;2.40;;
26594;SDS011;14238;49.496;8.154;2023-03-19T12:54:19;3.73;;;2.97;;
26594;SDS011;14238;49.496;8.154;2023-03-19T12:56:53;2.60;;;2.40;;
26594;SDS011;14238;49.496;8.154;2023-03-19T12:59:29;2.70;;;2.50;;
26594;SDS011;14238;49.496;8.154;2023-03-19T13:04:48;4.47;;;4.07;;
26594;SDS011;14238;49.496;8.154;2023-03-19T13:07:21;3.73;;;3.43;;
26594;SDS011;14238;49.496;8.154;2023-03-19T13:09:57;3.77;;;3.00;;
26594;SDS011;14238;49.496;8.154;2023-03-19T13:12:29;3.33;;;3.13;;
26594;SDS011;14238;49.496;8.154;2023-03-19T13:15:04;5.27;;;3.70;;
26594;SDS011;14238;49.496;8.154;2023-03-19T13:23:33;3.60;;;3.40;;
26594;SDS011;14238;49.496;8.154;2023-03-19T13:26:01;5.20;;;4.10;;
26594;SDS011;14238;49.496;8.154;2023-03-19T13:28:52;4.13;;;3.83;;
26594;SDS011;14238;49.496;8.154;2023-03-19T13:31:38;4.20;;;3.80;;
26594;SDS011;14238;49.496;8.154;2023-03-19T13:36:44;3.60;;;3.40;;
26594;SDS011;14238;49.496;8.154;2023-03-19T13:39:19;7.63;;;4.50;;
26594;SDS011;14238;49.496;8.154;2023-03-19T13:42:05;3.90;;;3.70;;
26594;SDS011;14238;49.496;8.154;2023-03-19T13:44:49;5.10;;;4.70;;
26594;SDS011;14238;49.496;8.154;2023-03-19T13:52:39;3.30;;;3.10;;
26594;SDS011;14238;49.496;8.154;2023-03-19T13:58:42;3.20;;;3.00;;
26594;SDS011;14238;49.496;8.154;2023-03-19T14:01:03;3.53;;;2.53;;
26594;SDS011;14238;49.496;8.154;2023-03-19T14:03:31;3.50;;;2.20;;
26594;SDS011;14238;49.496;8.154;2023-03-19T14:05:58;2.37;;;2.17;;
26594;SDS011;14238;49.496;8.154;2023-03-19T14:08:28;2.27;;;2.17;;
26594;SDS011;14238;49.496;8.154;2023-03-19T14:11:06;2.20;;;2.10;;
26594;SDS011;14238;49.496;8.154;2023-03-19T14:16:04;1.80;;;1.70;;
26594;SDS011;14238;49.496;8.154;2023-03-19T14:18:32;1.83;;;1.67;;
26594;SDS011;14238;49.496;8.154;2023-03-19T14:21:04;1.63;;;1.53;;
26594;SDS011;14238;49.496;8.154;2023-03-19T14:23:32;1.50;;;1.40;;
26594;SDS011;14238;49.496;8.154;2023-03-19T14:26:05;1.40;;;1.30;;
26594;SDS011;14238;49.496;8.154;2023-03-19T14:28:44;1.30;;;1.20;;
26594;SDS011;14238;49.496;8.154;2023-03-19T14:31:36;1.60;;;1.50;;
26594;SDS011;14238;49.496;8.154;2023-03-19T14:34:18;1.60;;;1.50;;
26594;SDS011;14238;49.496;8.154;2023-03-19T14:37:00;2.10;;;1.17;;
26594;SDS011;14238;49.496;8.154;2023-03-19T14:39:56;2.43;;;1.37;;
26594;SDS011;14238;49.496;8.154;2023-03-19T14:47:58;1.97;;;1.67;;
26594;SDS011;14238;49.496;8.154;2023-03-19T14:56:10;1.40;;;1.40;;
26594;SDS011;14238;49.496;8.154;2023-03-19T14:58:52;1.10;;;1.00;;
26594;SDS011;14238;49.496;8.154;2023-03-19T15:01:19;1.23;;;1.13;;
26594;SDS011;14238;49.496;8.154;2023-03-19T15:03:51;1.40;;;1.40;;
26594;SDS011;14238;49.496;8.154;2023-03-19T15:06:19;0.87;;;0.87;;
26594;SDS011;14238;49.496;8.154;2023-03-19T15:08:45;1.20;;;1.20;;
26594;SDS011;14238;49.496;8.154;2023-03-19T15:13:45;0.93;;;0.93;;
26594;SDS011;14238;49.496;8.154;2023-03-19T15:16:46;0.90;;;0.90;;
26594;SDS011;14238;49.496;8.154;2023-03-19T15:19:37;1.27;;;1.17;;
26594;SDS011;14238;49.496;8.154;2023-03-19T15:22:29;1.20;;;1.20;;
26594;SDS011;14238;49.496;8.154;2023-03-19T15:25:06;1.17;;;1.10;;
26594;SDS011;14238;49.496;8.154;2023-03-19T15:27:36;0.97;;;0.97;;
26594;SDS011;14238;49.496;8.154;2023-03-19T15:30:02;1.43;;;1.10;;
26594;SDS011;14238;49.496;8.154;2023-03-19T15:32:43;1.13;;;1.07;;
26594;SDS011;14238;49.496;8.154;2023-03-19T15:35:09;1.17;;;1.10;;
26594;SDS011;14238;49.496;8.154;2023-03-19T15:37:39;1.27;;;1.17;;
26594;SDS011;14238;49.496;8.154;2023-03-19T15:40:09;1.00;;;1.00;;
26594;SDS011;14238;49.496;8.154;2023-03-19T15:42:37;1.13;;;1.10;;
26594;SDS011;14238;49.496;8.154;2023-03-19T15:45:04;0.73;;;0.73;;
26594;SDS011;14238;49.496;8.154;2023-03-19T15:47:34;1.10;;;1.00;;
26594;SDS011;14238;49.496;8.154;2023-03-19T15:50:23;1.03;;;0.80;;
26594;SDS011;14238;49.496;8.154;2023-03-19T15:52:53;0.80;;;0.80;;
26594;SDS011;14238;49.496;8.154;2023-03-19T15:55:24;0.83;;;0.83;;
26594;SDS011;14238;49.496;8.154;2023-03-19T15:57:51;1.17;;;1.00;;
26594;SDS011;14238;49.496;8.154;2023-03-19T16:00:20;1.33;;;1.00;;
26594;SDS011;14238;49.496;8.154;2023-03-19T16:02:46;1.00;;;1.00;;
26594;SDS011;14238;49.496;8.154;2023-03-19T16:05:27;1.37;;;1.10;;
26594;SDS011;14238;49.496;8.154;2023-03-19T16:13:59;0.93;;;0.93;;
26594;SDS011;14238;49.496;8.154;2023-03-19T16:16:29;1.07;;;0.90;;
26594;SDS011;14238;49.496;8.154;2023-03-19T16:18:57;1.20;;;1.00;;
26594;SDS011;14238;49.496;8.154;2023-03-19T16:24:19;1.20;;;1.10;;
26594;SDS011;14238;49.496;8.154;2023-03-19T16:26:48;0.90;;;0.90;;
26594;SDS011;14238;49.496;8.154;2023-03-19T16:29:22;2.40;;;0.70;;
26594;SDS011;14238;49.496;8.154;2023-03-19T16:32:18;0.70;;;0.70;;
26594;SDS011;14238;49.496;8.154;2023-03-19T16:34:46;0.80;;;0.80;;
26594;SDS011;14238;49.496;8.154;2023-03-19T16:39:54;0.80;;;0.80;;
26594;SDS011;14238;49.496;8.154;2023-03-19T16:42:35;0.70;;;0.70;;
26594;SDS011;14238;49.496;8.154;2023-03-19T16:47:46;0.50;;;0.50;;
26594;SDS011;14238;49.496;8.154;2023-03-19T16:50:14;0.87;;;0.87;;
26594;SDS011;14238;49.496;8.154;2023-03-19T16:52:41;0.70;;;0.70;;
26594;SDS011;14238;49.496;8.154;2023-03-19T16:55:25;0.50;;;0.50;;
26594;SDS011;14238;49.496;8.154;2023-03-19T16:57:56;0.63;;;0.63;;